Time;durP1;ratioP1;P1;durP2;ratioP2;P2;SDS_P1;SDS_P2;PMS_P1;PMS_P2;Temp;Humidity;BMP_temperature;BMP_pressure;BME280_temperature;BME280_humidity;BME280_pressure;Samples;Min_cycle;Max_cycle;Signal;HPM_P1;HPM_P2
2022/07/19 00:01:27;;;;;;;4.83;4.43;;;21.40;60.60;;;;;;4982371;28;20319;-66
2022/07/19 00:03:52;;;;;;;5.53;5.13;;;21.40;61.90;;;;;;4983020;28;20179;-66
2022/07/19 00:06:18;;;;;;;6.93;3.93;;;21.30;61.40;;;;;;4980594;28;20645;-66
2022/07/19 00:08:43;;;;;;;6.10;4.50;;;21.30;62.10;;;;;;4976464;28;20200;-66
2022/07/19 00:11:09;;;;;;;5.13;4.73;;;21.30;62.10;;;;;;4978844;28;20178;-66
2022/07/19 00:13:34;;;;;;;5.03;4.63;;;21.30;64.00;;;;;;4987300;28;20188;-66
2022/07/19 00:16:00;;;;;;;5.13;4.63;;;21.20;63.30;;;;;;4982759;28;20196;-64
2022/07/19 00:18:26;;;;;;;5.67;5.27;;;21.20;64.40;;;;;;4983681;28;20183;-66
2022/07/19 00:20:51;;;;;;;5.17;4.77;;;21.20;64.10;;;;;;4978668;28;20252;-66
2022/07/19 00:23:17;;;;;;;4.77;4.30;;;21.20;64.20;;;;;;4981875;28;20191;-66
2022/07/19 00:25:42;;;;;;;4.40;4.00;;;21.20;64.40;;;;;;4983119;28;20358;-66
2022/07/19 00:28:08;;;;;;;4.50;4.10;;;21.20;65.20;;;;;;4980437;28;20207;-66
2022/07/19 00:30:33;;;;;;;4.90;4.60;;;21.10;65.70;;;;;;4980755;28;20239;-66
2022/07/19 00:32:59;;;;;;;5.87;4.73;;;21.00;67.20;;;;;;4979938;28;20184;-66
2022/07/19 00:35:24;;;;;;;4.97;4.57;;;21.00;69.10;;;;;;4985093;28;20200;-64
2022/07/19 00:37:50;;;;;;;13.00;5.20;;;20.90;70.10;;;;;;4982641;28;20188;-66
2022/07/19 00:40:22;;;;;;;4.87;4.53;;;20.80;70.40;;;;;;4987539;28;20649;-67
2022/07/19 00:42:48;;;;;;;5.23;4.93;;;20.80;70.60;;;;;;4981617;28;20204;-66
2022/07/19 00:45:14;;;;;;;4.93;4.40;;;20.80;71.20;;;;;;4987722;28;20457;-66
2022/07/19 00:47:40;;;;;;;5.10;4.70;;;20.80;70.40;;;;;;4984792;28;20200;-66
2022/07/19 00:50:06;;;;;;;6.10;5.60;;;20.90;70.20;;;;;;4983680;28;20206;-65
2022/07/19 00:52:33;;;;;;;5.43;5.10;;;20.90;69.90;;;;;;4981274;28;20183;-66
2022/07/19 00:54:59;;;;;;;6.27;5.87;;;20.90;71.00;;;;;;4983313;28;20542;-65
2022/07/19 00:57:24;;;;;;;6.00;5.43;;;20.90;71.30;;;;;;4985983;28;20530;-66
2022/07/19 00:59:54;;;;;;;5.70;5.30;;;20.90;71.70;;;;;;4984542;28;20213;-66
2022/07/19 01:02:20;;;;;;;6.93;6.13;;;20.90;72.30;;;;;;4989305;28;20256;-65
2022/07/19 01:04:45;;;;;;;8.27;6.03;;;20.90;72.90;;;;;;4987084;28;20478;-65
2022/07/19 01:07:12;;;;;;;6.10;5.60;;;20.90;73.50;;;;;;4981761;28;20185;-66
2022/07/19 01:09:38;;;;;;;6.50;5.90;;;20.90;75.10;;;;;;4992620;28;20182;-63
2022/07/19 01:12:05;;;;;;;6.53;5.93;;;20.90;75.50;;;;;;4981940;28;20431;-66
2022/07/19 01:14:31;;;;;;;6.60;5.63;;;20.90;76.70;;;;;;4977925;28;20279;-66
2022/07/19 01:16:58;;;;;;;8.10;5.53;;;20.90;77.10;;;;;;4986662;28;20795;-65
2022/07/19 01:19:24;;;;;;;8.83;6.80;;;20.90;78.20;;;;;;4978319;28;20451;-66
2022/07/19 01:21:49;;;;;;;6.30;5.90;;;20.90;81.10;;;;;;4979859;28;20802;-65
2022/07/19 01:24:15;;;;;;;9.00;7.37;;;20.70;81.50;;;;;;4984419;28;20219;-64
2022/07/19 01:26:40;;;;;;;9.63;6.83;;;20.70;84.80;;;;;;4981480;28;20188;-66
2022/07/19 01:29:06;;;;;;;6.90;6.33;;;20.50;86.40;;;;;;4987760;28;20211;-65
2022/07/19 01:31:31;;;;;;;5.80;5.30;;;20.40;88.10;;;;;;4985275;28;20194;-65
2022/07/19 01:33:57;;;;;;;7.50;6.00;;;20.30;89.40;;;;;;4985435;28;20268;-66
2022/07/19 01:36:22;;;;;;;6.07;5.50;;;20.30;90.30;;;;;;4989161;28;20172;-65
2022/07/19 01:38:48;;;;;;;6.70;5.83;;;20.30;90.40;;;;;;4988568;28;20547;-66
2022/07/19 01:41:13;;;;;;;6.20;5.80;;;20.30;90.60;;;;;;4982380;28;20184;-66
2022/07/19 01:43:39;;;;;;;7.83;5.77;;;20.30;90.70;;;;;;4981417;28;20589;-65
2022/07/19 01:46:05;;;;;;;6.23;5.73;;;20.30;91.90;;;;;;4981192;28;20290;-66
2022/07/19 01:48:31;;;;;;;6.00;5.50;;;20.30;92.20;;;;;;4980039;28;20553;-66
2022/07/19 01:50:56;;;;;;;6.70;6.10;;;20.20;92.60;;;;;;4985010;28;20179;-66
2022/07/19 01:53:22;;;;;;;10.03;5.60;;;20.30;93.10;;;;;;4985981;28;20184;-66
2022/07/19 01:55:47;;;;;;;6.30;5.80;;;20.20;93.00;;;;;;4981130;28;20597;-65
2022/07/19 01:58:13;;;;;;;8.90;6.77;;;20.20;93.70;;;;;;4984022;28;20187;-65
2022/07/19 02:00:38;;;;;;;6.80;6.20;;;20.20;92.70;;;;;;4988123;28;20179;-65
2022/07/19 02:03:04;;;;;;;6.67;5.97;;;20.20;94.20;;;;;;4990453;28;20194;-65
2022/07/19 02:05:29;;;;;;;13.40;7.50;;;20.10;94.10;;;;;;4984431;28;20214;-66
2022/07/19 02:07:55;;;;;;;8.70;6.97;;;20.00;94.40;;;;;;4987071;28;20203;-66
2022/07/19 02:10:20;;;;;;;6.50;5.90;;;19.90;94.50;;;;;;4990173;28;22098;-66
2022/07/19 02:12:46;;;;;;;6.07;5.50;;;19.90;94.90;;;;;;4988784;28;20267;-66
2022/07/19 02:15:11;;;;;;;5.80;5.30;;;19.80;95.40;;;;;;4978291;28;20204;-66
2022/07/19 02:17:37;;;;;;;5.60;5.20;;;19.80;95.10;;;;;;4986696;28;20315;-66
2022/07/19 02:20:05;;;;;;;6.57;5.97;;;19.80;94.40;;;;;;4981959;28;20772;-66
2022/07/19 02:22:30;;;;;;;8.57;5.70;;;19.90;94.70;;;;;;4981285;28;20435;-65
2022/07/19 02:24:56;;;;;;;6.13;5.57;;;19.90;95.90;;;;;;4978989;28;20477;-65
2022/07/19 02:27:21;;;;;;;5.93;5.33;;;19.80;95.30;;;;;;4986166;28;20187;-66
2022/07/19 02:29:48;;;;;;;5.13;4.73;;;19.70;95.60;;;;;;4979779;28;20691;-66
2022/07/19 02:32:13;;;;;;;5.57;5.17;;;19.60;96.00;;;;;;4988664;28;20279;-66
2022/07/19 02:34:39;;;;;;;5.93;5.53;;;19.60;96.30;;;;;;4980846;28;20887;-65
2022/07/19 02:37:04;;;;;;;5.70;5.20;;;19.50;96.20;;;;;;4981145;28;20231;-66
2022/07/19 02:39:30;;;;;;;10.20;5.40;;;19.50;95.90;;;;;;4982661;28;20180;-66
2022/07/19 02:41:56;;;;;;;9.77;5.10;;;19.50;95.60;;;;;;4986245;28;20211;-65
2022/07/19 02:44:22;;;;;;;7.53;5.07;;;19.60;95.30;;;;;;4976221;28;20210;-65
2022/07/19 02:46:47;;;;;;;7.73;5.77;;;19.60;95.90;;;;;;4990326;28;20815;-66
2022/07/19 02:49:13;;;;;;;5.00;4.70;;;19.60;95.40;;;;;;4989290;28;20583;-66
2022/07/19 02:51:38;;;;;;;5.07;4.67;;;19.60;95.30;;;;;;4979828;28;20215;-62
2022/07/19 02:54:04;;;;;;;5.50;5.00;;;19.60;95.80;;;;;;4990696;28;20290;-64
2022/07/19 02:56:29;;;;;;;6.00;5.00;;;19.50;96.10;;;;;;4990478;28;20171;-66
2022/07/19 02:58:55;;;;;;;4.87;4.37;;;19.40;96.10;;;;;;4984042;28;20268;-66
2022/07/19 03:01:20;;;;;;;5.23;4.73;;;19.40;96.00;;;;;;4979957;28;20664;-66
2022/07/19 03:03:50;;;;;;;4.83;4.43;;;19.50;96.30;;;;;;4983213;28;20192;-66
2022/07/19 03:06:17;;;;;;;5.43;4.10;;;19.40;96.20;;;;;;4986903;28;20199;-66
2022/07/19 03:08:43;;;;;;;5.80;5.40;;;19.30;96.00;;;;;;4983122;28;20466;-66
2022/07/19 03:11:09;;;;;;;6.83;5.07;;;19.30;97.10;;;;;;4981438;28;20959;-66
2022/07/19 03:13:34;;;;;;;5.40;4.90;;;19.20;97.30;;;;;;4981548;28;20442;-66
2022/07/19 03:16:00;;;;;;;4.73;4.43;;;19.20;97.80;;;;;;4981543;28;20200;-66
2022/07/19 03:18:26;;;;;;;5.07;4.57;;;19.20;97.50;;;;;;4983089;28;20183;-65
2022/07/19 03:20:51;;;;;;;5.10;4.73;;;19.20;97.30;;;;;;4983196;28;20669;-65
2022/07/19 03:23:17;;;;;;;5.97;5.37;;;19.20;97.00;;;;;;4981012;28;20187;-66
2022/07/19 03:25:42;;;;;;;6.03;5.50;;;19.20;97.00;;;;;;5024438;22;20219;-65
2022/07/19 03:28:08;;;;;;;5.60;5.10;;;18.40;97.50;;;;;;5016442;28;20206;-68
2022/07/19 03:30:33;;;;;;;7.07;5.63;;;19.10;98.50;;;;;;5017132;28;20210;-65
2022/07/19 03:32:59;;;;;;;6.10;5.70;;;19.10;98.70;;;;;;5012620;28;20224;-65
2022/07/19 03:35:24;;;;;;;5.73;5.23;;;19.10;98.50;;;;;;4997033;28;20283;-67
2022/07/19 03:37:50;;;;;;;6.80;6.00;;;19.10;98.20;;;;;;5008378;28;20187;-66
2022/07/19 03:40:16;;;;;;;5.90;5.40;;;19.10;98.20;;;;;;5012658;28;20186;-65
2022/07/19 03:42:41;;;;;;;7.50;5.40;;;19.10;98.10;;;;;;5014075;28;20209;-66
2022/07/19 03:45:08;;;;;;;7.70;5.20;;;19.20;97.80;;;;;;5008980;28;20225;-67
2022/07/19 03:47:33;;;;;;;8.23;5.80;;;19.20;97.80;;;;;;5012707;28;20210;-68
2022/07/19 03:49:59;;;;;;;6.83;4.70;;;19.20;97.90;;;;;;4983668;28;20435;-66
2022/07/19 03:52:25;;;;;;;5.43;4.60;;;19.20;97.80;;;;;;5002361;28;20205;-66
2022/07/19 03:54:51;;;;;;;5.00;4.60;;;19.20;98.40;;;;;;5008031;28;20195;-65
2022/07/19 03:57:16;;;;;;;5.20;4.80;;;19.10;98.70;;;;;;5015100;28;20460;-66
2022/07/19 03:59:42;;;;;;;5.23;4.83;;;19.10;98.70;;;;;;5010105;28;20182;-67
2022/07/19 04:02:08;;;;;;;5.27;4.83;;;19.10;99.00;;;;;;5006927;28;20186;-65
2022/07/19 04:04:34;;;;;;;5.20;4.80;;;19.10;98.90;;;;;;5010895;28;20494;-65
2022/07/19 04:07:00;;;;;;;5.90;5.50;;;19.10;99.20;;;;;;5008025;28;20543;-65
2022/07/19 04:09:25;;;;;;;5.43;4.73;;;19.20;99.40;;;;;;4993043;28;20466;-66
2022/07/19 04:11:51;;;;;;;6.20;5.30;;;19.20;99.90;;;;;;5005995;28;20175;-65
2022/07/19 04:14:16;;;;;;;6.40;5.47;;;19.10;99.90;;;;;;5007716;28;20655;-66
2022/07/19 04:16:42;;;;;;;6.60;6.10;;;19.10;99.90;;;;;;4997450;28;20182;-66
2022/07/19 04:19:07;;;;;;;9.20;7.90;;;19.10;99.90;;;;;;5013105;28;20195;-65
2022/07/19 04:21:33;;;;;;;11.00;10.10;;;19.20;99.90;;;;;;5016938;28;20224;-65
2022/07/19 04:23:58;;;;;;;6.20;5.70;;;19.20;99.90;;;;;;5010893;28;20309;-66
2022/07/19 04:26:24;;;;;;;7.20;5.80;;;19.30;99.90;;;;;;5003705;28;20575;-65
2022/07/19 04:28:50;;;;;;;5.90;5.40;;;19.50;99.90;;;;;;5003899;28;20215;-67
2022/07/19 04:31:16;;;;;;;9.47;8.57;;;19.60;99.90;;;;;;5011884;28;20178;-66
2022/07/19 04:33:42;;;;;;;8.90;6.87;;;19.80;99.90;;;;;;5003961;28;20190;-67
2022/07/19 04:36:07;;;;;;;6.53;5.57;;;20.00;99.50;;;;;;5011505;28;20449;-67
2022/07/19 04:38:33;;;;;;;6.87;6.10;;;20.00;99.90;;;;;;4995876;28;20620;-66
2022/07/19 04:40:58;;;;;;;6.73;6.23;;;20.10;99.90;;;;;;5001622;28;20274;-66
2022/07/19 04:43:24;;;;;;;7.37;6.70;;;20.30;99.90;;;;;;5006982;28;20241;-66
2022/07/19 04:45:49;;;;;;;6.10;5.60;;;20.40;99.90;;;;;;5009839;28;20217;-66
2022/07/19 04:48:15;;;;;;;6.93;5.87;;;20.50;99.50;;;;;;4997256;28;20223;-66
2022/07/19 04:50:41;;;;;;;5.40;4.90;;;20.60;99.60;;;;;;5004401;28;20205;-68
2022/07/19 04:53:07;;;;;;;6.33;4.83;;;20.60;99.80;;;;;;5000105;28;20211;-65
2022/07/19 04:55:33;;;;;;;5.70;5.20;;;20.70;99.80;;;;;;5008821;28;20202;-65
2022/07/19 04:57:59;;;;;;;9.50;6.63;;;20.80;99.90;;;;;;5008128;28;20969;-65
2022/07/19 05:00:24;;;;;;;8.33;5.70;;;21.00;99.80;;;;;;5009529;28;20277;-65
2022/07/19 05:02:50;;;;;;;8.70;6.27;;;21.10;98.90;;;;;;5009309;28;20186;-65
2022/07/19 05:05:15;;;;;;;6.87;5.50;;;21.20;98.40;;;;;;5011817;28;20583;-65
2022/07/19 05:07:41;;;;;;;6.10;5.50;;;21.40;98.40;;;;;;5001516;28;20215;-66
2022/07/19 05:10:08;;;;;;;7.47;5.90;;;21.50;98.50;;;;;;4987628;28;20198;-68
2022/07/19 05:12:33;;;;;;;7.10;6.50;;;21.60;99.20;;;;;;4976150;28;20446;-69
2022/07/19 05:14:59;;;;;;;6.77;6.00;;;21.70;98.80;;;;;;4989609;28;20532;-69
2022/07/19 05:17:25;;;;;;;6.23;5.77;;;21.90;98.40;;;;;;4993300;28;20255;-67
2022/07/19 05:19:51;;;;;;;6.27;5.77;;;22.00;97.70;;;;;;4973705;28;20649;-66
2022/07/19 05:22:16;;;;;;;6.53;6.03;;;22.20;97.50;;;;;;4999778;28;20438;-66
2022/07/19 05:24:42;;;;;;;15.47;7.03;;;22.30;96.60;;;;;;5000817;28;20974;-66
2022/07/19 05:27:07;;;;;;;6.13;4.73;;;22.50;96.00;;;;;;5007742;28;20186;-66
2022/07/19 05:29:33;;;;;;;8.57;5.37;;;22.70;95.30;;;;;;4998138;28;20210;-67
2022/07/19 05:31:58;;;;;;;7.33;5.90;;;22.80;94.70;;;;;;4992401;28;20219;-67
2022/07/19 05:34:24;;;;;;;6.20;5.67;;;23.00;93.50;;;;;;4999900;28;20249;-67
2022/07/19 05:36:49;;;;;;;8.43;5.57;;;23.10;93.10;;;;;;5006932;28;20488;-67
2022/07/19 05:39:15;;;;;;;6.30;5.53;;;23.30;93.00;;;;;;5004092;28;20198;-67
2022/07/19 05:41:41;;;;;;;6.33;5.53;;;23.40;92.80;;;;;;4994755;28;20529;-66
2022/07/19 05:44:06;;;;;;;6.93;5.53;;;23.60;92.30;;;;;;5008363;28;20201;-67
2022/07/19 05:46:32;;;;;;;6.23;5.63;;;23.70;91.90;;;;;;5009539;28;20640;-67
2022/07/19 05:48:57;;;;;;;8.83;5.73;;;23.80;91.60;;;;;;4984141;28;20235;-67
2022/07/19 05:51:23;;;;;;;6.10;5.60;;;23.90;91.40;;;;;;4998978;28;20194;-67
2022/07/19 05:53:48;;;;;;;10.23;7.60;;;24.10;90.50;;;;;;5008695;28;20179;-67
2022/07/19 05:56:14;;;;;;;7.37;6.60;;;24.20;87.80;;;;;;4994546;28;20624;-67
2022/07/19 05:58:39;;;;;;;11.13;5.77;;;24.30;87.00;;;;;;4990530;28;20191;-67
2022/07/19 06:01:17;;;;;;;8.73;5.57;;;24.50;85.40;;;;;;4993441;28;20630;-67
2022/07/19 06:03:43;;;;;;;7.97;6.20;;;24.20;81.20;;;;;;4991245;28;20283;-69
2022/07/19 06:06:09;;;;;;;10.23;5.67;;;24.10;82.70;;;;;;4995951;28;20491;-68
2022/07/19 06:08:35;;;;;;;6.27;5.67;;;24.00;81.30;;;;;;5009312;28;20611;-66
2022/07/19 06:11:00;;;;;;;6.13;5.63;;;24.00;82.00;;;;;;5007131;28;20684;-67
2022/07/19 06:13:26;;;;;;;6.37;5.77;;;24.00;81.00;;;;;;5009502;28;20598;-68
2022/07/19 06:15:52;;;;;;;5.73;5.33;;;24.20;81.00;;;;;;5009685;28;20207;-66
2022/07/19 06:18:18;;;;;;;5.87;5.23;;;24.40;79.60;;;;;;5005666;28;20206;-66
2022/07/19 06:20:44;;;;;;;9.10;5.97;;;24.60;78.90;;;;;;5000305;28;20215;-66
2022/07/19 06:23:09;;;;;;;6.20;5.63;;;24.80;77.60;;;;;;5009731;28;20460;-65
2022/07/19 06:25:35;;;;;;;6.80;5.00;;;24.90;75.70;;;;;;5008236;28;20313;-65
2022/07/19 06:28:00;;;;;;;5.93;5.37;;;25.00;75.20;;;;;;5009779;28;20846;-65
2022/07/19 06:30:26;;;;;;;4.90;4.47;;;25.20;73.30;;;;;;5005334;28;20187;-64
2022/07/19 06:32:51;;;;;;;6.57;4.60;;;25.50;71.70;;;;;;5009447;28;20190;-65
2022/07/19 06:35:17;;;;;;;4.30;3.90;;;25.70;69.30;;;;;;5009350;28;20199;-64
2022/07/19 06:37:43;;;;;;;4.47;4.17;;;25.60;66.90;;;;;;5008808;28;20596;-64
2022/07/19 06:40:09;;;;;;;4.43;4.10;;;25.60;65.50;;;;;;5007238;28;20278;-65
2022/07/19 06:42:35;;;;;;;3.73;3.43;;;25.80;65.00;;;;;;4990935;28;20182;-65
2022/07/19 06:45:03;;;;;;;4.10;3.80;;;25.90;62.70;;;;;;5005314;28;20955;-65
2022/07/19 06:47:29;;;;;;;3.60;3.30;;;25.80;61.50;;;;;;5012811;28;20449;-64
2022/07/19 06:49:55;;;;;;;5.43;3.40;;;25.90;61.80;;;;;;4995993;28;20414;-63
2022/07/19 06:52:21;;;;;;;4.77;3.27;;;26.00;61.00;;;;;;5008763;28;20190;-65
2022/07/19 06:54:47;;;;;;;10.00;3.97;;;26.30;61.30;;;;;;4990910;28;20447;-64
2022/07/19 06:57:12;;;;;;;4.90;3.60;;;26.30;60.40;;;;;;5011614;28;20234;-64
2022/07/19 06:59:38;;;;;;;4.17;3.70;;;26.40;60.10;;;;;;5012016;28;20202;-65
2022/07/19 07:02:04;;;;;;;3.83;3.53;;;26.60;59.10;;;;;;4992969;28;20179;-64
2022/07/19 07:04:30;;;;;;;4.20;3.77;;;26.70;57.50;;;;;;5001102;28;20214;-64
2022/07/19 07:06:56;;;;;;;3.30;3.00;;;26.70;57.70;;;;;;5009131;28;20273;-64
2022/07/19 07:09:22;;;;;;;4.17;3.30;;;27.10;57.90;;;;;;4998648;28;20462;-64
2022/07/19 07:11:47;;;;;;;8.10;3.80;;;27.60;56.20;;;;;;5005361;28;20424;-65
2022/07/19 07:14:13;;;;;;;3.90;3.50;;;28.00;55.70;;;;;;5002914;28;20664;-65
2022/07/19 07:16:39;;;;;;;6.30;4.27;;;28.10;54.20;;;;;;4989267;28;20172;-64
2022/07/19 07:19:05;;;;;;;3.60;3.30;;;28.00;54.20;;;;;;4999087;28;20186;-63
2022/07/19 07:21:33;;;;;;;4.63;4.23;;;28.20;54.80;;;;;;5007214;28;20261;-64
2022/07/19 07:23:58;;;;;;;8.30;3.33;;;28.30;54.10;;;;;;5011041;28;20170;-65
2022/07/19 07:26:24;;;;;;;4.50;3.10;;;28.30;54.70;;;;;;5011241;28;20942;-64
2022/07/19 07:28:49;;;;;;;8.60;3.87;;;28.60;53.10;;;;;;4992105;28;20695;-64
2022/07/19 07:31:15;;;;;;;7.13;3.20;;;29.00;51.90;;;;;;4998568;28;20182;-64
2022/07/19 07:33:40;;;;;;;4.53;3.70;;;28.90;51.00;;;;;;5011712;28;20172;-64
2022/07/19 07:36:06;;;;;;;5.97;4.00;;;28.90;51.20;;;;;;5012180;28;20668;-65
2022/07/19 07:38:31;;;;;;;3.40;3.20;;;29.20;50.60;;;;;;5008438;28;20245;-65
2022/07/19 07:40:57;;;;;;;3.93;3.53;;;29.60;50.00;;;;;;4996541;28;20191;-64
2022/07/19 07:43:22;;;;;;;3.83;3.43;;;29.80;49.40;;;;;;5010979;28;20225;-64
2022/07/19 07:45:48;;;;;;;4.07;3.67;;;30.00;48.70;;;;;;4996776;28;20214;-65
2022/07/19 07:48:14;;;;;;;3.50;3.10;;;29.80;48.30;;;;;;4990957;28;20195;-65
2022/07/19 07:50:40;;;;;;;3.83;3.43;;;29.90;48.80;;;;;;4996513;28;20183;-66
2022/07/19 07:53:05;;;;;;;4.07;3.03;;;30.20;48.60;;;;;;4991674;28;20653;-64
2022/07/19 07:55:31;;;;;;;3.73;3.43;;;30.60;48.70;;;;;;4992015;28;20552;-65
2022/07/19 07:57:56;;;;;;;7.50;3.53;;;31.00;46.70;;;;;;5007139;28;20185;-63
2022/07/19 08:00:22;;;;;;;2.90;2.70;;;31.40;46.00;;;;;;5007821;28;20179;-64
2022/07/19 08:02:49;;;;;;;3.67;3.27;;;31.70;45.20;;;;;;5010012;28;20170;-63
2022/07/19 08:05:15;;;;;;;4.30;3.07;;;31.70;45.10;;;;;;5011793;28;20187;-64
2022/07/19 08:07:41;;;;;;;4.30;3.50;;;31.90;43.50;;;;;;5009913;28;20469;-64
2022/07/19 08:10:08;;;;;;;3.63;3.20;;;31.80;43.90;;;;;;4990397;28;20180;-65
2022/07/19 08:12:34;;;;;;;6.10;3.40;;;32.10;43.60;;;;;;5009912;28;20187;-64
2022/07/19 08:14:59;;;;;;;3.60;3.30;;;32.50;43.00;;;;;;5010790;28;20541;-65
2022/07/19 08:17:25;;;;;;;3.50;2.90;;;32.70;42.30;;;;;;4986833;28;20171;-64
2022/07/19 08:19:51;;;;;;;6.20;5.03;;;32.90;41.60;;;;;;5004930;28;20189;-65
2022/07/19 08:22:18;;;;;;;9.40;3.20;;;33.20;41.10;;;;;;5002759;28;20189;-64
2022/07/19 08:24:44;;;;;;;3.20;2.90;;;33.00;40.30;;;;;;5007656;28;20309;-64
2022/07/19 08:27:10;;;;;;;4.57;2.83;;;33.10;40.30;;;;;;5007569;28;20552;-64
2022/07/19 08:29:35;;;;;;;4.17;3.80;;;33.10;39.70;;;;;;4999494;28;20828;-66
2022/07/19 08:32:01;;;;;;;3.77;3.03;;;32.90;39.40;;;;;;5007557;28;20167;-65
2022/07/19 08:34:27;;;;;;;4.17;3.37;;;32.80;39.40;;;;;;4999957;28;20203;-64
2022/07/19 08:36:52;;;;;;;3.50;3.20;;;32.90;40.00;;;;;;4991699;28;20174;-66
2022/07/19 08:39:18;;;;;;;3.67;3.37;;;33.10;39.50;;;;;;4991309;28;20176;-64
2022/07/19 08:41:44;;;;;;;3.73;3.30;;;33.30;39.30;;;;;;5001964;28;20171;-65
2022/07/19 08:44:11;;;;;;;6.50;3.60;;;33.30;39.30;;;;;;5011422;28;20183;-65
2022/07/19 08:46:37;;;;;;;4.23;3.80;;;33.10;39.40;;;;;;4989746;28;20183;-64
2022/07/19 08:49:02;;;;;;;4.23;3.50;;;33.30;39.90;;;;;;5008713;28;20461;-65
2022/07/19 08:51:28;;;;;;;3.37;3.17;;;33.50;38.70;;;;;;5007657;28;20225;-65
2022/07/19 08:53:53;;;;;;;3.07;2.77;;;33.60;38.80;;;;;;5002427;28;20250;-65
2022/07/19 08:59:05;;;;;;;3.00;2.70;;;33.60;38.40;;;;;;4990749;28;20666;-65
2022/07/19 09:01:30;;;;;;;3.60;3.07;;;34.10;39.10;;;;;;5003564;28;20448;-65
2022/07/19 09:04:10;;;;;;;3.40;3.10;;;34.40;37.90;;;;;;5015030;28;20422;-64
2022/07/19 09:06:43;;;;;;;3.90;3.43;;;34.30;37.40;;;;;;5013042;28;20213;-64
2022/07/19 09:09:10;;;;;;;5.17;3.70;;;34.10;37.60;;;;;;4994567;28;20458;-64
2022/07/19 09:11:48;;;;;;;3.60;3.30;;;34.10;37.60;;;;;;5004929;28;20449;-64
2022/07/19 09:14:14;;;;;;;3.73;3.43;;;34.00;37.70;;;;;;5002250;28;20449;-66
2022/07/19 09:17:01;;;;;;;7.53;3.50;;;33.80;37.70;;;;;;4994875;28;20506;-66
2022/07/19 09:19:28;;;;;;;3.80;3.17;;;34.00;38.30;;;;;;4993691;28;20466;-65
2022/07/19 09:22:06;;;;;;;3.40;3.20;;;34.30;37.30;;;;;;5007245;28;20509;-64
2022/07/19 09:24:34;;;;;;;4.07;3.87;;;34.10;37.30;;;;;;5014976;28;20512;-65
2022/07/19 09:27:09;;;;;;;3.30;3.00;;;34.10;37.20;;;;;;5013145;28;20521;-65
2022/07/19 09:29:36;;;;;;;4.97;3.30;;;34.10;37.30;;;;;;5013612;28;20450;-65
2022/07/19 09:32:10;;;;;;;3.47;3.27;;;34.30;37.80;;;;;;5009392;28;20430;-65
2022/07/19 09:34:48;;;;;;;3.73;3.40;;;34.40;37.00;;;;;;4996723;28;20456;-65
2022/07/19 09:37:15;;;;;;;3.87;3.57;;;34.50;37.30;;;;;;5013273;28;20429;-65
2022/07/19 09:39:44;;;;;;;4.67;3.73;;;34.70;37.10;;;;;;5013113;28;20432;-65
2022/07/19 09:42:11;;;;;;;6.93;3.93;;;35.00;36.90;;;;;;5006767;28;20435;-65
2022/07/19 09:44:36;;;;;;;3.60;3.40;;;35.10;36.60;;;;;;5007800;28;20951;-66
2022/07/19 09:47:02;;;;;;;4.73;3.93;;;35.30;36.20;;;;;;5014131;28;20418;-65
2022/07/19 09:49:28;;;;;;;4.50;3.10;;;35.30;35.90;;;;;;5011782;28;20203;-65
2022/07/19 09:51:54;;;;;;;3.20;2.70;;;35.40;35.90;;;;;;5010511;28;20429;-65
2022/07/19 09:54:23;;;;;;;6.67;3.80;;;35.90;35.30;;;;;;5013941;28;20187;-65
2022/07/19 09:56:50;;;;;;;5.50;2.63;;;36.40;34.90;;;;;;4992892;28;20423;-65
2022/07/19 09:59:17;;;;;;;3.03;2.83;;;37.10;34.10;;;;;;4993676;28;20533;-64
2022/07/19 10:01:43;;;;;;;8.63;3.90;;;37.70;32.80;;;;;;5005888;28;20430;-66
2022/07/19 10:04:10;;;;;;;3.70;3.40;;;38.50;32.10;;;;;;4995969;28;20426;-64
2022/07/19 10:06:38;;;;;;;3.40;3.20;;;38.70;31.70;;;;;;5012854;28;20465;-65
2022/07/19 10:09:06;;;;;;;3.90;3.60;;;38.70;30.80;;;;;;5012443;28;20970;-65
2022/07/19 10:11:32;;;;;;;3.97;3.47;;;38.80;30.50;;;;;;5010132;28;20895;-65
2022/07/19 10:13:58;;;;;;;3.93;3.63;;;38.90;29.90;;;;;;4991410;28;20474;-66
2022/07/19 10:16:51;;;;;;;4.57;4.07;;;38.80;29.70;;;;;;4991187;28;20465;-65
2022/07/19 10:19:28;;;;;;;4.30;3.90;;;38.70;29.70;;;;;;4993530;28;20434;-65
2022/07/19 10:21:54;;;;;;;3.90;3.60;;;38.50;29.30;;;;;;5002378;28;20926;-65
2022/07/19 10:24:46;;;;;;;3.93;3.63;;;39.10;29.50;;;;;;5010036;28;20433;-65
2022/07/19 10:27:17;;;;;;;5.30;3.90;;;39.50;29.40;;;;;;5008880;28;20524;-64
2022/07/19 10:29:42;;;;;;;4.20;3.90;;;39.30;29.30;;;;;;5009608;28;20488;-65
2022/07/19 10:32:11;;;;;;;3.57;3.37;;;39.20;29.10;;;;;;5005393;28;20425;-65
2022/07/19 10:34:37;;;;;;;5.67;3.20;;;40.20;28.80;;;;;;5009827;28;20560;-64
2022/07/19 10:37:03;;;;;;;3.63;3.33;;;40.20;28.10;;;;;;5008901;28;20430;-65
2022/07/19 10:39:34;;;;;;;4.00;3.70;;;40.40;28.30;;;;;;4997152;28;20184;-65
2022/07/19 10:42:09;;;;;;;3.50;3.07;;;41.00;28.10;;;;;;5002703;28;20179;-65
2022/07/19 10:44:56;;;;;;;6.43;3.50;;;41.70;27.40;;;;;;4989657;28;20894;-65
2022/07/19 10:47:22;;;;;;;3.87;3.37;;;42.10;27.20;;;;;;4990110;28;20821;-65
2022/07/19 10:49:48;;;;;;;3.57;3.27;;;42.40;26.60;;;;;;5000269;28;20500;-65
2022/07/19 10:52:29;;;;;;;3.97;3.67;;;41.90;26.70;;;;;;5006115;28;20476;-65
2022/07/19 10:55:24;;;;;;;4.10;3.70;;;42.50;26.30;;;;;;5008388;28;20476;-65
2022/07/19 10:57:51;;;;;;;6.73;4.10;;;43.10;26.20;;;;;;4989728;28;20418;-65
2022/07/19 11:00:22;;;;;;;3.73;3.40;;;42.80;25.90;;;;;;4992201;28;20961;-65
2022/07/19 11:02:49;;;;;;;4.23;3.80;;;42.80;26.20;;;;;;5006127;28;20437;-66
2022/07/19 11:05:28;;;;;;;4.10;3.80;;;43.00;25.90;;;;;;5009138;28;20820;-65
2022/07/19 11:07:56;;;;;;;3.87;3.67;;;43.00;25.90;;;;;;5008943;28;20457;-65
2022/07/19 11:10:30;;;;;;;5.00;4.60;;;43.00;25.20;;;;;;4994686;28;20517;-65
2022/07/19 11:12:58;;;;;;;5.37;4.60;;;43.80;25.80;;;;;;5007292;28;20418;-66
2022/07/19 11:15:27;;;;;;;3.73;3.53;;;44.00;25.30;;;;;;5003428;28;20442;-65
2022/07/19 11:18:02;;;;;;;4.17;3.87;;;44.50;24.60;;;;;;5011567;28;20483;-66
2022/07/19 11:20:30;;;;;;;4.23;3.93;;;44.10;24.80;;;;;;5008371;28;20457;-66
2022/07/19 11:22:57;;;;;;;5.33;3.50;;;44.00;24.90;;;;;;4999043;28;20954;-65
2022/07/19 11:25:38;;;;;;;4.20;3.80;;;43.90;25.10;;;;;;4992441;28;20462;-66
2022/07/19 11:28:04;;;;;;;8.10;4.10;;;44.30;24.50;;;;;;4995264;28;20461;-65
2022/07/19 11:30:32;;;;;;;4.00;3.80;;;44.10;24.50;;;;;;4998445;28;20862;-65
2022/07/19 11:33:01;;;;;;;4.30;3.90;;;45.20;24.40;;;;;;5011517;28;20584;-65
2022/07/19 11:35:27;;;;;;;4.10;3.90;;;46.50;24.30;;;;;;5010184;28;20448;-62
2022/07/19 11:37:55;;;;;;;4.57;4.20;;;46.60;23.70;;;;;;4992968;28;20422;-63
2022/07/19 11:40:22;;;;;;;4.20;3.80;;;46.10;23.70;;;;;;4991328;28;20450;-63
2022/07/19 11:42:49;;;;;;;3.97;3.70;;;45.10;23.70;;;;;;5011340;28;20796;-63
2022/07/19 11:45:16;;;;;;;4.00;3.63;;;44.70;23.70;;;;;;5006745;28;20450;-63
2022/07/19 11:47:47;;;;;;;4.03;3.77;;;44.90;23.90;;;;;;5005087;28;20425;-63
2022/07/19 11:50:15;;;;;;;4.30;3.90;;;44.90;23.60;;;;;;4998407;28;20414;-64
2022/07/19 11:52:55;;;;;;;4.70;4.30;;;46.20;23.50;;;;;;5000818;28;20946;-63
2022/07/19 11:55:24;;;;;;;3.77;3.47;;;46.60;23.30;;;;;;5003619;28;20457;-63
2022/07/19 11:57:51;;;;;;;3.83;3.60;;;45.80;23.40;;;;;;5012071;28;20433;-64
2022/07/19 12:00:18;;;;;;;4.93;4.47;;;45.10;23.50;;;;;;5007805;28;20512;-63
2022/07/19 12:02:57;;;;;;;4.30;3.90;;;45.80;23.80;;;;;;5010677;28;20913;-63
2022/07/19 12:05:27;;;;;;;4.80;4.40;;;46.50;23.20;;;;;;5011887;28;20438;-62
2022/07/19 12:07:54;;;;;;;6.30;4.90;;;47.60;23.00;;;;;;5003695;28;20462;-63
2022/07/19 12:10:39;;;;;;;4.60;4.20;;;47.40;22.60;;;;;;5006204;28;20428;-63
2022/07/19 12:13:07;;;;;;;4.40;4.00;;;45.90;22.40;;;;;;5003942;28;20765;-63
2022/07/19 12:15:54;;;;;;;4.23;3.90;;;45.10;22.80;;;;;;5008699;28;20441;-63
2022/07/19 12:18:22;;;;;;;5.97;3.97;;;45.40;23.20;;;;;;5009915;28;20434;-63
2022/07/19 12:21:20;;;;;;;5.50;4.10;;;46.70;22.90;;;;;;5007821;28;20465;-63
2022/07/19 12:24:07;;;;;;;3.97;3.67;;;47.20;22.60;;;;;;5011021;28;20425;-63
2022/07/19 12:26:33;;;;;;;5.37;4.10;;;46.80;22.50;;;;;;4991733;28;20423;-63
2022/07/19 12:28:59;;;;;;;4.73;4.33;;;47.20;22.50;;;;;;5007236;28;20465;-63
2022/07/19 12:31:24;;;;;;;4.17;3.83;;;47.90;22.30;;;;;;5006999;28;20464;-63
2022/07/19 12:34:08;;;;;;;4.33;4.10;;;48.30;22.10;;;;;;5010557;28;20510;-63
2022/07/19 12:36:37;;;;;;;4.60;4.30;;;46.90;22.10;;;;;;5014400;28;20175;-64
2022/07/19 12:39:03;;;;;;;4.50;4.23;;;48.10;22.30;;;;;;5014040;28;20425;-63
2022/07/19 12:41:28;;;;;;;4.40;4.10;;;48.30;22.00;;;;;;5010282;28;20500;-63
2022/07/19 12:43:54;;;;;;;6.23;4.83;;;47.40;22.40;;;;;;5012030;28;20262;-63
2022/07/19 12:46:19;;;;;;;5.83;4.37;;;48.10;22.20;;;;;;5015131;28;20191;-63
2022/07/19 12:48:45;;;;;;;5.33;4.07;;;48.10;22.20;;;;;;5012761;28;20195;-63